Map

Track Data

SID SEASON NUMBER BASIN SUBBASIN NAME ISO_TIME NATURE LAT LON WMO_WIND WMO_PRES WMO_AGENCY TRACK_TYPE DIST2LAND LANDFALL IFLAG USA_AGENCY USA_ATCF_ID USA_LAT USA_LON USA_RECORD USA_STATUS USA_WIND USA_PRES USA_SSHS USA_R34_NE USA_R34_SE USA_R34_SW USA_R34_NW USA_R50_NE USA_R50_SE USA_R50_SW USA_R50_NW USA_R64_NE USA_R64_SE USA_R64_SW USA_R64_NW USA_POCI USA_ROCI USA_RMW USA_EYE TOKYO_LAT TOKYO_LON TOKYO_GRADE TOKYO_WIND TOKYO_PRES TOKYO_R50_DIR TOKYO_R50_LONG TOKYO_R50_SHORT TOKYO_R30_DIR TOKYO_R30_LONG TOKYO_R30_SHORT TOKYO_LAND CMA_LAT CMA_LON CMA_CAT CMA_WIND CMA_PRES HKO_LAT HKO_LON HKO_CAT HKO_WIND HKO_PRES NEWDELHI_LAT NEWDELHI_LON NEWDELHI_GRADE NEWDELHI_WIND NEWDELHI_PRES NEWDELHI_CI NEWDELHI_DP NEWDELHI_POCI REUNION_LAT REUNION_LON REUNION_TYPE REUNION_WIND REUNION_PRES REUNION_TNUM REUNION_CI REUNION_RMW REUNION_R34_NE REUNION_R34_SE REUNION_R34_SW REUNION_R34_NW REUNION_R50_NE REUNION_R50_SE REUNION_R50_SW REUNION_R50_NW REUNION_R64_NE REUNION_R64_SE REUNION_R64_SW REUNION_R64_NW BOM_LAT BOM_LON BOM_TYPE BOM_WIND BOM_PRES BOM_TNUM BOM_CI BOM_RMW BOM_R34_NE BOM_R34_SE BOM_R34_SW BOM_R34_NW BOM_R50_NE BOM_R50_SE BOM_R50_SW BOM_R50_NW BOM_R64_NE BOM_R64_SE BOM_R64_SW BOM_R64_NW BOM_ROCI BOM_POCI BOM_EYE BOM_POS_METHOD BOM_PRES_METHOD NADI_LAT NADI_LON NADI_CAT NADI_WIND NADI_PRES WELLINGTON_LAT WELLINGTON_LON WELLINGTON_WIND WELLINGTON_PRES DS824_LAT DS824_LON DS824_STAGE DS824_WIND DS824_PRES TD9636_LAT TD9636_LON TD9636_STAGE TD9636_WIND TD9636_PRES TD9635_LAT TD9635_LON TD9635_WIND TD9635_PRES TD9635_ROCI NEUMANN_LAT NEUMANN_LON NEUMANN_CLASS NEUMANN_WIND NEUMANN_PRES MLC_LAT MLC_LON MLC_CLASS MLC_WIND MLC_PRES USA_GUST BOM_GUST BOM_GUST_PER REUNION_GUST REUNION_GUST_PER USA_SEAHGT USA_SEARAD_NE USA_SEARAD_SE USA_SEARAD_SW USA_SEARAD_NW STORM_SPEED STORM_DIR
1969052N05155 1969 14 WP MM NOT_NAMED 1969-02-21 06:00:00 TS 5.00000 155.200 main 986 986 __O___________ -1 5.00000 155.200 1 29 998 4 36
1969052N05155 1969 14 WP MM NOT_NAMED 1969-02-21 09:00:00 TS 5.15001 155.310 main 1011 1011 __P___________ -1 5.15001 155.310 1 29 998 4 33
1969052N05155 1969 14 WP MM NOT_NAMED 1969-02-21 12:00:00 TS 5.30000 155.400 main 1026 1026 __O___________ -1 5.30000 155.400 1 29 998 3 26
1969052N05155 1969 14 WP MM NOT_NAMED 1969-02-21 15:00:00 TS 5.45000 155.458 main 1051 1041 __P___________ -1 5.45000 155.458 1 29 998 3 17
1969052N05155 1969 14 WP MM NOT_NAMED 1969-02-21 18:00:00 TS 5.60000 155.500 main 1061 1061 __O___________ -1 5.60000 155.500 1 29 998 3 17
1969052N05155 1969 14 WP MM NOT_NAMED 1969-02-21 21:00:00 TS 5.74250 155.550 main 1076 1076 __P___________ -1 5.74250 155.550 1 29 998 3 17
1969052N05155 1969 14 WP MM NOT_NAMED 1969-02-22 00:00:00 TS 5.90000 155.600 main 1096 1096 __O___________ -1 5.90000 155.600 1 29 998 4 18
1969052N05155 1969 14 WP MM NOT_NAMED 1969-02-22 03:00:00 TS 6.09250 155.672 main 1121 1121 __P___________ -1 6.09250 155.672 1 29 998 4 13
1969052N05155 1969 14 WP MM NOT_NAMED 1969-02-22 06:00:00 TS 6.30000 155.700 main 1140 1140 __O___________ -1 6.30000 155.700 1 29 998 4 355
1969052N05155 1969 14 WP MM NOT_NAMED 1969-02-22 09:00:00 TS 6.52250 155.630 main 1155 1155 __P___________ -1 6.52250 155.630 1 29 998 4 334
1969052N05155 1969 14 WP MM NOT_NAMED 1969-02-22 12:00:00 TS 6.70000 155.500 main 1170 1170 __O___________ -1 6.70000 155.500 1 29 998 4 316
1969052N05155 1969 14 WP MM NOT_NAMED 1969-02-22 15:00:00 TS 6.78748 155.372 main 1176 1166 __P___________ -1 6.78748 155.372 1 29 999 3 289
1969052N05155 1969 14 WP MM NOT_NAMED 1969-02-22 18:00:00 TS 6.80000 155.200 main 1166 1157 __O___________ -1 6.80000 155.200 1 29 1000 4 268
1969052N05155 1969 14 WP MM NOT_NAMED 1969-02-22 21:00:00 TS 6.77253 154.950 main 1153 1134 __P___________ -1 6.77253 154.950 1 29 1000 5 259
1969052N05155 1969 14 WP MM NOT_NAMED 1969-02-23 00:00:00 TS 6.70000 154.700 main 1134 1116 __O___________ -1 6.70000 154.700 1 29 1000 5 248
1969052N05155 1969 14 WP MM NOT_NAMED 1969-02-23 03:00:00 TS 6.60748 154.527 main 1116 1101 __P___________ -1 6.60748 154.527 1 24 1002 4 236
1969052N05155 1969 14 WP MM NOT_NAMED 1969-02-23 06:00:00 TS 6.50000 154.400 main 1101 1087 __O___________ -1 6.50000 154.400 0 19 1005 3 230
1969052N05155 1969 14 WP MM NOT_NAMED 1969-02-23 09:00:00 TS 6.41499 154.300 main 1087 1073 __P___________ -1 6.41499 154.300 0 19 1005 3 225
1969052N05155 1969 14 WP MM NOT_NAMED 1969-02-23 12:00:00 TS 6.30000 154.200 main 1073 1048 __O___________ -1 6.30000 154.200 0 19 1005 4 219
1969052N05155 1969 14 WP MM NOT_NAMED 1969-02-23 15:00:00 TS 6.12002 154.062 main 1048 1019 __P___________ -1 6.12002 154.062 0 19 1005 5 217
1969052N05155 1969 14 WP MM NOT_NAMED 1969-02-23 18:00:00 TS 5.90000 153.900 main 1019 __O___________ -1 5.90000 153.900 0 19 1005 5 217

Digital Typhoon Data and Search

About IBTrACS Database

This database is a web-friendly format of International Best Track Archive for Climate Stewardship (IBTrACS), a global best track data archive curated by NOAA dating back to 1842.

Updated: 2021-10-21